createdAt,value
2023-04-21T00:16:33.160Z,99.9
2023-04-21T00:18:39.232Z,99.9
2023-04-21T00:21:03.120Z,99.9
2023-04-21T00:23:09.363Z,99.9
2023-04-21T00:25:15.628Z,99.9
2023-04-21T00:46:23.732Z,1
2023-04-21T00:48:29.935Z,1
2023-04-21T00:50:36.171Z,1
2023-04-21T00:54:48.685Z,1
2023-04-21T00:56:57.733Z,99.9
2023-04-21T00:59:04.036Z,99.9
2023-04-21T01:01:10.255Z,99.9
2023-04-21T01:03:16.792Z,99.9
2023-04-21T01:05:22.705Z,99.9
2023-04-21T01:07:28.972Z,99.9
2023-04-21T01:17:01.458Z,1
2023-04-21T01:19:07.557Z,1
2023-04-21T01:21:13.796Z,1
2023-04-21T01:23:20.030Z,1
2023-04-21T01:25:29.086Z,1
2023-04-21T01:27:35.345Z,1
2023-04-21T01:29:41.608Z,1
2023-04-21T01:38:06.558Z,1
2023-04-21T01:42:22.011Z,1
2023-04-21T01:48:40.712Z,2.7
2023-04-21T01:50:46.970Z,6.5
2023-04-21T01:52:53.225Z,10.3
2023-04-21T01:55:03.826Z,16.6
2023-04-21T01:57:10.107Z,18.7
2023-04-21T02:01:22.667Z,29
2023-04-21T02:03:29.037Z,37.3
2023-04-21T02:07:41.298Z,45.1
2023-04-21T02:09:50.348Z,49.7
2023-04-21T02:15:07.496Z,56.1
2023-04-21T02:17:13.748Z,56.8
2023-04-21T02:19:20.222Z,61.5
2023-04-21T02:29:54.183Z,80.1
2023-04-21T02:32:07.748Z,84.2
2023-04-21T02:34:06.684Z,86.3
2023-04-21T02:42:34.495Z,98.5
2023-04-21T02:44:40.753Z,99
2023-04-21T02:50:59.502Z,99.9
2023-04-21T02:53:08.568Z,99.9
2023-04-21T02:55:14.813Z,99.9
2023-04-21T03:01:33.807Z,99.9
2023-04-21T03:03:40.134Z,99.9
2023-04-21T03:05:46.308Z,99.9
2023-04-21T03:10:01.637Z,99.9
2023-04-21T03:13:12.412Z,99.9
2023-04-21T03:15:18.638Z,99.9
2023-04-21T03:17:24.898Z,99.9
2023-04-21T03:19:31.170Z,99.9
2023-04-21T03:25:52.713Z,99.9
2023-04-21T03:27:59.064Z,99.9
2023-04-21T03:30:05.343Z,99.9
2023-04-21T03:32:11.599Z,99.9
2023-04-21T03:34:17.825Z,99.9
2023-04-21T03:36:26.894Z,99.9
2023-04-21T03:38:33.120Z,99.9
2023-04-21T03:40:39.364Z,99.9
2023-04-21T03:42:45.604Z,99.9
2023-04-21T03:44:51.842Z,99.9
2023-04-21T03:46:58.104Z,99.9
2023-04-21T03:49:04.332Z,99.9
2023-04-21T03:53:19.626Z,99.9
2023-04-21T03:55:25.886Z,99.9
2023-04-21T04:08:06.170Z,99.9
2023-04-21T04:10:12.521Z,99.9
2023-04-21T04:12:32.422Z,99.9
2023-04-21T04:16:44.850Z,99.9
2023-04-21T04:21:00.190Z,99.9
2023-04-21T04:23:06.427Z,99.9
2023-04-21T04:25:12.666Z,99.9
2023-04-21T04:27:18.932Z,99.9
2023-04-21T04:35:46.662Z,99.9
2023-04-21T04:37:52.887Z,99.9
2023-04-21T04:42:05.419Z,99.9
2023-04-21T04:50:33.191Z,99.9
2023-04-21T04:52:39.408Z,99.9
2023-04-21T04:54:45.653Z,99.9
2023-04-21T04:56:51.909Z,99.9
2023-04-21T04:58:58.136Z,99.9
2023-04-21T05:01:04.389Z,99.9
2023-04-21T05:03:13.580Z,99.9
2023-04-21T05:05:19.684Z,99.9
2023-04-21T05:07:25.937Z,99.9
2023-04-21T05:08:30.442Z,99.9
2023-04-21T05:10:36.716Z,99.9
2023-04-21T05:12:42.941Z,99.9
2023-04-21T05:14:49.155Z,99.9
2023-04-21T05:16:58.411Z,99.9
2023-04-21T05:21:10.699Z,99.9
2023-04-21T05:23:16.951Z,99.9
2023-04-21T05:25:23.225Z,99.9
2023-04-21T05:27:29.446Z,99.9
2023-04-21T05:29:35.684Z,99.9
2023-04-21T05:42:15.985Z,99.9
2023-04-21T05:52:49.958Z,99.9
2023-04-21T05:54:56.206Z,99.9
2023-04-21T05:57:02.464Z,99.9
2023-04-21T05:59:08.693Z,99.9
2023-04-21T06:05:30.256Z,99.9
2023-04-21T06:08:41.017Z,99.9
2023-04-21T06:15:02.553Z,99.9
2023-04-21T06:19:15.068Z,99.9
2023-04-21T06:21:21.300Z,99.9
2023-04-21T06:23:27.561Z,99.9
2023-04-21T06:25:33.792Z,99.9
2023-04-21T06:27:40.047Z,99.9
2023-04-21T06:29:49.119Z,99.9
2023-04-21T06:31:55.371Z,99.9
2023-04-21T06:34:01.628Z,99.9
2023-04-21T06:38:14.140Z,99.9
2023-04-21T06:40:20.383Z,99.9
2023-04-21T06:42:26.627Z,99.9
2023-04-21T06:44:35.699Z,99.9
2023-04-21T06:46:41.944Z,99.9
2023-04-21T06:48:48.192Z,99.9
2023-04-21T06:50:54.479Z,99.9
2023-04-21T06:53:00.734Z,99.9
2023-04-21T07:04:39.381Z,99.9
2023-04-21T07:06:45.625Z,99.9
2023-04-21T07:08:51.849Z,99.9
2023-04-21T07:10:58.140Z,99.9
2023-04-21T07:13:08.215Z,99.9
2023-04-21T07:15:13.463Z,99.9
2023-04-21T07:17:19.725Z,99.9
2023-04-21T07:25:44.751Z,99.9
2023-04-21T07:27:53.828Z,99.9
2023-04-21T07:30:00.126Z,99.9
2023-04-21T07:32:06.361Z,99.9
2023-04-21T07:34:12.660Z,99.9
2023-04-21T07:36:18.867Z,99.9
2023-04-21T07:38:25.149Z,99.9
2023-04-21T07:40:31.610Z,99.9
2023-04-21T07:42:40.489Z,99.9
2023-04-21T07:44:46.761Z,99.9
2023-04-21T07:48:59.852Z,99.9
2023-04-21T07:59:34.939Z,99.9
2023-04-21T08:10:22.739Z,99.9
2023-04-21T08:12:28.787Z,99.9
2023-04-21T08:14:35.077Z,99.9
2023-04-21T08:16:41.400Z,99.9
2023-04-21T08:23:00.171Z,99.9
2023-04-21T08:31:28.036Z,99.9
2023-04-21T08:33:34.305Z,99.9
2023-04-21T08:37:46.871Z,99.9
2023-04-21T08:39:55.950Z,99.9
2023-04-21T08:42:02.189Z,99.9
2023-04-21T08:44:08.449Z,99.9
2023-04-21T08:48:21.004Z,99.9
2023-04-21T08:50:27.266Z,99.9
2023-04-21T08:52:33.556Z,99.9
2023-04-21T08:54:42.626Z,99.9
2023-04-21T08:56:48.911Z,99.9
2023-04-21T08:58:55.184Z,99.9
2023-04-21T08:59:59.706Z,99.9
2023-04-21T09:02:06.088Z,99.9
2023-04-21T09:04:12.393Z,99.9
2023-04-21T09:08:27.613Z,99.9
2023-04-21T09:12:40.178Z,99.9
2023-04-21T09:14:46.433Z,99.9
2023-04-21T09:16:52.757Z,99.9
2023-04-21T09:18:58.980Z,99.9
2023-04-21T09:21:05.270Z,99.9
2023-04-21T09:25:20.637Z,99.9
2023-04-21T09:27:26.934Z,99.9
2023-04-21T09:29:33.201Z,99.9
2023-04-21T09:31:39.538Z,99.9
2023-04-21T09:33:54.293Z,99.9
2023-04-21T09:44:21.346Z,99.9
2023-04-21T09:54:54.283Z,99.9
2023-04-21T09:57:00.570Z,99.9
2023-04-21T09:58:05.107Z,99.9
2023-04-21T10:00:11.411Z,99.9
2023-04-21T10:08:39.372Z,99.9
2023-04-21T10:17:04.523Z,99.9
2023-04-21T10:19:10.810Z,99.9
2023-04-21T10:23:26.223Z,99.9
2023-04-21T10:25:32.523Z,99.9
2023-04-21T10:27:38.805Z,99.9
2023-04-21T10:29:55.986Z,99.9
2023-04-21T10:31:51.499Z,99.9
2023-04-21T10:36:06.768Z,99.9
2023-04-21T10:38:13.064Z,99.9
2023-04-21T10:40:19.743Z,99.9
2023-04-21T10:42:25.638Z,99.9
2023-04-21T10:44:31.909Z,99.9
2023-04-21T10:46:38.326Z,99.9
2023-04-21T10:48:44.520Z,99.9
2023-04-21T10:50:53.614Z,99.9
2023-04-21T10:52:59.926Z,99.9
2023-04-21T10:55:06.209Z,99.9
2023-04-21T10:56:10.760Z,99.9
2023-04-21T11:00:23.339Z,99.9
2023-04-21T11:02:29.868Z,99.9
2023-04-21T11:04:38.980Z,99.9
2023-04-21T11:06:45.016Z,99.9
2023-04-21T11:08:51.333Z,99.9
2023-04-21T11:10:57.601Z,99.9
2023-04-21T11:13:03.890Z,99.9
2023-04-21T11:15:10.157Z,99.9
2023-04-21T11:17:16.451Z,99.9
2023-04-21T11:23:38.139Z,99.9
2023-04-21T11:25:44.417Z,99.9
2023-04-21T11:32:03.300Z,99.9
2023-04-21T11:36:18.721Z,99.9
2023-04-21T11:38:25.040Z,99.9
2023-04-21T11:42:37.605Z,99.9
2023-04-21T11:46:50.221Z,99.9
2023-04-21T11:51:05.615Z,99.9
2023-04-21T11:55:31.711Z,99.9
2023-04-21T11:57:37.972Z,99.9
2023-04-21T12:10:18.550Z,99.9
2023-04-21T12:12:24.863Z,99.9
2023-04-21T12:16:40.271Z,99.9
2023-04-21T12:20:52.827Z,99.9
2023-04-21T12:25:05.382Z,99.9
2023-04-21T12:31:27.111Z,99.9
2023-04-21T12:33:33.360Z,99.9
2023-04-21T12:35:39.683Z,99.9
2023-04-21T12:37:45.916Z,99.9
2023-04-21T12:39:52.203Z,99.9
2023-04-21T12:41:58.475Z,99.9
2023-04-21T12:44:04.784Z,99.9
2023-04-21T12:46:13.909Z,99.9
2023-04-21T12:48:20.207Z,99.9
2023-04-21T12:50:26.454Z,99.9
2023-04-21T12:51:31.069Z,99.9
2023-04-21T12:53:37.326Z,99.9
2023-04-21T12:55:52.931Z,99.9
2023-04-21T12:57:49.886Z,99.9
2023-04-21T12:59:58.998Z,99.9
2023-04-21T13:02:05.384Z,99.9
2023-04-21T13:04:11.862Z,99.9
2023-04-21T13:06:17.857Z,99.9
2023-04-21T13:08:24.122Z,99.9
2023-04-21T13:10:30.417Z,99.9
2023-04-21T13:12:36.713Z,99.9
2023-04-21T13:23:10.932Z,99.9
2023-04-21T13:25:17.219Z,99.9
2023-04-21T13:27:23.516Z,99.9
2023-04-21T13:29:32.897Z,99.9
2023-04-21T13:33:45.174Z,99.9
2023-04-21T13:35:51.483Z,99.9
2023-04-21T13:37:57.705Z,99.9
2023-04-21T13:42:10.242Z,99.9
2023-04-21T13:46:25.721Z,1
2023-04-21T13:48:31.911Z,18.6
2023-04-21T13:49:36.440Z,1
2023-04-21T13:55:55.235Z,1
2023-04-21T13:58:04.332Z,64.8
2023-04-21T14:00:12.206Z,40.8
2023-04-21T14:04:24.854Z,79
2023-04-21T14:06:30.915Z,99.6
2023-04-21T14:08:37.128Z,1
2023-04-21T14:12:52.513Z,1
2023-04-21T14:14:58.769Z,1
2023-04-21T14:23:23.786Z,1
2023-04-21T14:25:30.073Z,1
2023-04-21T14:29:45.475Z,1
2023-04-21T14:33:57.996Z,1
2023-04-21T14:36:04.282Z,1
2023-04-21T14:38:10.572Z,1
2023-04-21T14:40:16.799Z,1
2023-04-21T14:42:25.986Z,1
2023-04-21T14:49:49.298Z,1
2023-04-21T14:51:55.615Z,1
2023-04-21T14:54:01.904Z,1
2023-04-21T15:02:30.080Z,99.8
2023-04-21T15:13:04.118Z,99.9
2023-04-21T15:15:10.401Z,99.9
2023-04-21T15:21:29.155Z,99.9
2023-04-21T15:23:35.470Z,99.9
2023-04-21T15:29:57.138Z,99.9
2023-04-21T15:34:09.687Z,99.9
2023-04-21T15:36:15.976Z,99.9
2023-04-21T15:38:22.269Z,99.9
2023-04-21T15:40:31.375Z,99.9
2023-04-21T15:42:37.631Z,99.9
2023-04-21T15:44:43.949Z,99.9
2023-04-21T15:47:03.952Z,99.9
2023-04-21T15:59:44.410Z,99.9
2023-04-21T16:12:24.885Z,99.9
2023-04-21T16:14:42.872Z,99.9
2023-04-21T16:16:37.475Z,99.9
2023-04-21T16:18:43.836Z,99.9
2023-04-21T16:20:49.985Z,99.9
2023-04-21T16:22:59.164Z,99.9
2023-04-21T16:25:05.516Z,99.9
2023-04-21T16:29:17.926Z,99.9
2023-04-21T16:31:24.243Z,99.9
2023-04-21T16:35:36.790Z,99.9
2023-04-21T16:39:52.072Z,99.9
2023-04-21T16:41:58.411Z,99.9
2023-04-21T16:43:02.888Z,99.9
2023-04-21T16:49:21.617Z,99.9
2023-04-21T16:51:30.734Z,99.9
2023-04-21T16:59:55.821Z,99.9
2023-04-21T17:02:02.177Z,99.9
2023-04-21T17:06:17.381Z,99.9
2023-04-21T17:08:23.664Z,99.9
2023-04-21T17:10:29.929Z,99.9
2023-04-21T17:21:04.119Z,99.9
2023-04-21T17:27:22.929Z,99.9
2023-04-21T17:37:57.174Z,99.9
2023-04-21T17:41:08.013Z,99.9
2023-04-21T17:43:14.276Z,99.9
2023-04-21T17:47:26.858Z,1
2023-04-21T17:51:42.230Z,1
2023-04-21T17:58:01.116Z,1
2023-04-21T18:00:07.417Z,1
2023-04-21T18:02:13.929Z,1
2023-04-21T18:06:29.132Z,1
2023-04-21T18:08:35.407Z,1
2023-04-21T18:10:41.696Z,1
2023-04-21T18:14:54.295Z,1
2023-04-21T18:21:15.989Z,1
2023-04-21T18:23:22.278Z,1
2023-04-21T18:27:34.910Z,99.9
2023-04-21T18:29:41.180Z,99.9
2023-04-21T18:38:09.162Z,99.9
2023-04-21T18:39:13.724Z,99.9
2023-04-21T18:41:19.995Z,99.9
2023-04-21T18:43:26.323Z,99.9
2023-04-21T18:45:32.584Z,99.9
2023-04-21T18:47:41.777Z,99.9
2023-04-21T18:49:48.010Z,99.9
2023-04-21T18:51:54.280Z,99.9
2023-04-21T19:02:28.764Z,99.9
2023-04-21T19:15:06.314Z,99.9
2023-04-21T19:19:21.729Z,99.9
2023-04-21T19:23:34.303Z,99.9
2023-04-21T19:25:40.585Z,99.9
2023-04-21T19:27:46.893Z,99.9
2023-04-21T19:29:53.200Z,99.9
2023-04-21T19:32:02.338Z,1
2023-04-21T19:34:08.615Z,1
2023-04-21T19:36:14.875Z,1
2023-04-21T19:40:41.244Z,1
2023-04-21T19:42:48.272Z,1
2023-04-21T19:44:57.364Z,1
2023-04-21T19:47:03.640Z,1
2023-04-21T19:51:16.202Z,1
2023-04-21T19:55:28.799Z,1
2023-04-21T19:57:35.076Z,1
2023-04-21T19:59:44.229Z,1
2023-04-21T20:01:50.567Z,1
2023-04-21T20:03:58.493Z,1
2023-04-21T20:06:04.582Z,1
2023-04-21T20:08:10.843Z,1
2023-04-21T20:10:17.165Z,1
2023-04-21T20:12:23.420Z,1
2023-04-21T20:16:38.875Z,1
2023-04-21T20:18:45.059Z,1
2023-04-21T20:20:51.377Z,10.8
2023-04-21T20:22:57.621Z,23
2023-04-21T20:25:03.888Z,23.8
2023-04-21T20:27:10.148Z,14
2023-04-21T20:33:31.783Z,1
2023-04-21T20:34:36.315Z,1
2023-04-21T20:38:48.883Z,1
2023-04-21T20:40:55.270Z,1
2023-04-21T20:43:04.215Z,1
2023-04-21T20:45:10.476Z,1
2023-04-21T20:47:16.800Z,1
2023-04-21T20:49:23.075Z,1
2023-04-21T20:51:29.320Z,1
2023-04-21T20:53:35.566Z,1
2023-04-21T20:57:50.924Z,1
2023-04-21T20:59:57.170Z,1
2023-04-21T21:02:03.537Z,1
2023-04-21T21:06:15.979Z,1
2023-04-21T21:08:22.257Z,1
2023-04-21T21:10:28.520Z,1
2023-04-21T21:14:43.885Z,1
2023-04-21T21:29:30.591Z,1
2023-04-21T21:31:36.871Z,1
2023-04-21T21:32:41.457Z,1
2023-04-21T21:41:09.301Z,4.8
2023-04-21T21:47:28.291Z,45.9
2023-04-21T21:53:46.968Z,99
2023-04-21T21:55:56.047Z,99.5
2023-04-21T21:58:02.316Z,99.7
2023-04-21T22:02:14.904Z,99.9
2023-04-21T22:04:21.174Z,99.9
2023-04-21T22:06:27.396Z,99.9
2023-04-21T22:08:33.671Z,99.9
2023-04-21T22:10:42.744Z,99.9
2023-04-21T22:14:55.270Z,66.2
2023-04-21T22:21:14.082Z,99.8
2023-04-21T22:30:46.535Z,99.9
2023-04-21T22:32:52.786Z,99.9
2023-04-21T22:34:59.047Z,99.9
2023-04-21T22:37:05.328Z,99.9
2023-04-21T22:41:20.648Z,99.9
2023-04-21T22:43:26.923Z,99.9
2023-04-21T22:45:33.172Z,99.9
2023-04-21T22:47:39.498Z,99.9
2023-04-21T22:49:45.713Z,1
2023-04-21T22:54:01.037Z,1
2023-04-21T22:58:15.622Z,1
2023-04-21T23:00:19.831Z,1
2023-04-21T23:02:26.163Z,31.3
2023-04-21T23:04:32.352Z,65.4
2023-04-21T23:06:38.610Z,91.3
2023-04-21T23:13:02.709Z,99.8
2023-04-21T23:15:06.473Z,99.8
2023-04-21T23:17:12.723Z,99.8
2023-04-21T23:23:34.306Z,99.9
2023-04-21T23:25:40.539Z,99.9
2023-04-21T23:27:46.785Z,99.9
2023-04-21T23:30:07.051Z,99.9
2023-04-21T23:34:19.516Z,99.9
2023-04-21T23:38:34.822Z,99.9
2023-04-21T23:40:41.064Z,99.9
2023-04-21T23:49:06.016Z,99.9
2023-04-21T23:51:15.077Z,1
2023-04-21T23:53:21.305Z,1
2023-04-21T23:55:27.562Z,1
2023-04-21T23:57:33.779Z,1
2023-04-21T23:59:40.417Z,1
